sensor_id;sensor_type;location;lat;lon;timestamp;pressure;altitude;pressure_sealevel;temperature
54306;BMP280;64314;45.188;5.712;2022-10-15T00:01:24;99426.56;;;21.81
54306;BMP280;64314;45.188;5.712;2022-10-15T00:03:50;99419.44;;;21.78
54306;BMP280;64314;45.188;5.712;2022-10-15T00:06:18;99416.19;;;21.82
54306;BMP280;64314;45.188;5.712;2022-10-15T00:08:45;99414.63;;;21.79
54306;BMP280;64314;45.188;5.712;2022-10-15T00:11:16;99412.13;;;21.83
54306;BMP280;64314;45.188;5.712;2022-10-15T00:13:43;99409.41;;;21.73
54306;BMP280;64314;45.188;5.712;2022-10-15T00:16:12;99422.50;;;21.82
54306;BMP280;64314;45.188;5.712;2022-10-15T00:18:38;99414.72;;;21.81
54306;BMP280;64314;45.188;5.712;2022-10-15T00:21:08;99409.66;;;21.77
54306;BMP280;64314;45.188;5.712;2022-10-15T00:23:34;99395.53;;;21.73
54306;BMP280;64314;45.188;5.712;2022-10-15T00:26:08;99398.44;;;21.75
54306;BMP280;64314;45.188;5.712;2022-10-15T00:28:34;99406.28;;;21.79
54306;BMP280;64314;45.188;5.712;2022-10-15T00:31:05;99407.13;;;21.81
54306;BMP280;64314;45.188;5.712;2022-10-15T00:33:31;99383.69;;;21.73
54306;BMP280;64314;45.188;5.712;2022-10-15T00:36:11;99396.75;;;21.82
54306;BMP280;64314;45.188;5.712;2022-10-15T00:38:36;99388.03;;;21.76
54306;BMP280;64314;45.188;5.712;2022-10-15T00:41:03;99386.22;;;21.80
54306;BMP280;64314;45.188;5.712;2022-10-15T00:43:43;99386.97;;;21.81
54306;BMP280;64314;45.188;5.712;2022-10-15T00:46:24;99382.03;;;21.79
54306;BMP280;64314;45.188;5.712;2022-10-15T00:48:57;99386.97;;;21.81
54306;BMP280;64314;45.188;5.712;2022-10-15T00:51:28;99386.97;;;21.81
54306;BMP280;64314;45.188;5.712;2022-10-15T00:53:55;99370.66;;;21.75
54306;BMP280;64314;45.188;5.712;2022-10-15T00:56:23;99378.63;;;21.81
54306;BMP280;64314;45.188;5.712;2022-10-15T00:58:52;99377.34;;;21.82
54306;BMP280;64314;45.188;5.712;2022-10-15T01:01:19;99373.31;;;21.73
54306;BMP280;64314;45.188;5.712;2022-10-15T01:03:44;99378.53;;;21.79
54306;BMP280;64314;45.188;5.712;2022-10-15T01:06:10;99371.50;;;21.78
54306;BMP280;64314;45.188;5.712;2022-10-15T01:08:35;99379.72;;;21.76
54306;BMP280;64314;45.188;5.712;2022-10-15T01:16:53;99390.66;;;21.83
54306;BMP280;64314;45.188;5.712;2022-10-15T01:22:02;99388.31;;;21.80
54306;BMP280;64314;45.188;5.712;2022-10-15T01:27:45;99394.00;;;21.82
54306;BMP280;64314;45.188;5.712;2022-10-15T01:35:58;99381.69;;;21.85
54306;BMP280;64314;45.188;5.712;2022-10-15T01:38:35;99380.69;;;21.80
54306;BMP280;64314;45.188;5.712;2022-10-15T01:41:09;99384.34;;;21.83
54306;BMP280;64314;45.188;5.712;2022-10-15T01:43:47;99382.41;;;21.85
54306;BMP280;64314;45.188;5.712;2022-10-15T01:46:20;99379.63;;;21.85
54306;BMP280;64314;45.188;5.712;2022-10-15T01:48:48;99370.31;;;21.81
54306;BMP280;64314;45.188;5.712;2022-10-15T01:51:16;99361.41;;;21.82
54306;BMP280;64314;45.188;5.712;2022-10-15T01:53:43;99367.53;;;21.81
54306;BMP280;64314;45.188;5.712;2022-10-15T01:56:15;99370.75;;;21.87
54306;BMP280;64314;45.188;5.712;2022-10-15T01:58:43;99352.34;;;21.82
54306;BMP280;64314;45.188;5.712;2022-10-15T02:01:09;99363.09;;;21.87
54306;BMP280;64314;45.188;5.712;2022-10-15T02:03:49;99358.91;;;21.86
54306;BMP280;64314;45.188;5.712;2022-10-15T02:06:29;99360.31;;;21.87
54306;BMP280;64314;45.188;5.712;2022-10-15T02:09:06;99344.75;;;21.82
54306;BMP280;64314;45.188;5.712;2022-10-15T02:11:48;99350.56;;;21.86
54306;BMP280;64314;45.188;5.712;2022-10-15T02:14:28;99343.66;;;21.87
54306;BMP280;64314;45.188;5.712;2022-10-15T02:17:07;99347.16;;;21.88
54306;BMP280;64314;45.188;5.712;2022-10-15T02:19:49;99355.50;;;21.88
54306;BMP280;64314;45.188;5.712;2022-10-15T02:22:18;99349.38;;;21.89
54306;BMP280;64314;45.188;5.712;2022-10-15T02:24:55;99349.38;;;21.89
54306;BMP280;64314;45.188;5.712;2022-10-15T02:27:23;99334.66;;;21.87
54306;BMP280;64314;45.188;5.712;2022-10-15T02:29:50;99338.72;;;21.86
54306;BMP280;64314;45.188;5.712;2022-10-15T02:32:19;99336.06;;;21.88
54306;BMP280;64314;45.188;5.712;2022-10-15T02:34:45;99327.47;;;21.84
54306;BMP280;64314;45.188;5.712;2022-10-15T02:37:11;99334.16;;;21.90
54306;BMP280;64314;45.188;5.712;2022-10-15T02:39:37;99339.69;;;21.90
54306;BMP280;64314;45.188;5.712;2022-10-15T02:42:03;99321.25;;;21.83
54306;BMP280;64314;45.188;5.712;2022-10-15T02:44:28;99318.56;;;21.85
54306;BMP280;64314;45.188;5.712;2022-10-15T02:46:55;99320.59;;;21.85
54306;BMP280;64314;45.188;5.712;2022-10-15T02:49:21;99317.00;;;21.82
54306;BMP280;64314;45.188;5.712;2022-10-15T02:51:47;99320.59;;;21.85
54306;BMP280;64314;45.188;5.712;2022-10-15T02:54:12;99327.25;;;21.91
54306;BMP280;64314;45.188;5.712;2022-10-15T02:56:38;99328.47;;;21.88
54306;BMP280;64314;45.188;5.712;2022-10-15T02:59:04;99334.16;;;21.90
54306;BMP280;64314;45.188;5.712;2022-10-15T03:01:30;99325.69;;;21.88
54306;BMP280;64314;45.188;5.712;2022-10-15T03:03:56;99325.13;;;21.90
54306;BMP280;64314;45.188;5.712;2022-10-15T03:06:21;99328.59;;;21.90
54306;BMP280;64314;45.188;5.712;2022-10-15T03:08:47;99330.19;;;21.93
54306;BMP280;64314;45.188;5.712;2022-10-15T03:11:12;99323.03;;;21.90
54306;BMP280;64314;45.188;5.712;2022-10-15T03:13:38;99322.56;;;21.94
54306;BMP280;64314;45.188;5.712;2022-10-15T03:16:06;99318.34;;;21.93
54306;BMP280;64314;45.188;5.712;2022-10-15T03:18:32;99316.16;;;21.91
54306;BMP280;64314;45.188;5.712;2022-10-15T03:20:57;99307.81;;;21.91
54306;BMP280;64314;45.188;5.712;2022-10-15T03:23:23;99320.53;;;21.94
54306;BMP280;64314;45.188;5.712;2022-10-15T03:25:49;99314.13;;;21.92
54306;BMP280;64314;45.188;5.712;2022-10-15T03:28:14;99327.53;;;21.95
54306;BMP280;64314;45.188;5.712;2022-10-15T03:30:41;99318.94;;;21.91
54306;BMP280;64314;45.188;5.712;2022-10-15T03:33:06;99317.75;;;21.94
54306;BMP280;64314;45.188;5.712;2022-10-15T03:35:32;99311.94;;;21.90
54306;BMP280;64314;45.188;5.712;2022-10-15T03:37:57;99318.50;;;21.95
54306;BMP280;64314;45.188;5.712;2022-10-15T03:40:22;99300.84;;;21.90
54306;BMP280;64314;45.188;5.712;2022-10-15T03:42:51;99301.56;;;21.91
54306;BMP280;64314;45.188;5.712;2022-10-15T03:45:17;99310.88;;;21.95
54306;BMP280;64314;45.188;5.712;2022-10-15T03:47:43;99303.59;;;21.90
54306;BMP280;64314;45.188;5.712;2022-10-15T03:50:08;99317.75;;;21.94
54306;BMP280;64314;45.188;5.712;2022-10-15T03:52:35;99319.66;;;21.92
54306;BMP280;64314;45.188;5.712;2022-10-15T03:55:00;99318.94;;;21.91
54306;BMP280;64314;45.188;5.712;2022-10-15T03:57:26;99320.66;;;21.96
54306;BMP280;64314;45.188;5.712;2022-10-15T03:59:51;99317.75;;;21.94
54306;BMP280;64314;45.188;5.712;2022-10-15T04:02:17;99322.09;;;21.97
54306;BMP280;64314;45.188;5.712;2022-10-15T04:04:42;99310.16;;;21.95
54306;BMP280;64314;45.188;5.712;2022-10-15T04:07:07;99311.59;;;21.96
54306;BMP280;64314;45.188;5.712;2022-10-15T04:09:33;99323.56;;;21.98
54306;BMP280;64314;45.188;5.712;2022-10-15T04:11:58;99324.88;;;21.97
54306;BMP280;64314;45.188;5.712;2022-10-15T04:14:23;99318.50;;;21.95
54306;BMP280;64314;45.188;5.712;2022-10-15T04:16:49;99327.09;;;21.99
54306;BMP280;64314;45.188;5.712;2022-10-15T04:19:14;99317.88;;;21.96
54306;BMP280;64314;45.188;5.712;2022-10-15T04:21:40;99324.75;;;21.95
54306;BMP280;64314;45.188;5.712;2022-10-15T04:24:05;99325.34;;;21.94
54306;BMP280;64314;45.188;5.712;2022-10-15T04:26:31;99328.13;;;21.94
54306;BMP280;64314;45.188;5.712;2022-10-15T04:28:56;99332.63;;;21.99
54306;BMP280;64314;45.188;5.712;2022-10-15T04:31:21;99323.31;;;21.94
54306;BMP280;64314;45.188;5.712;2022-10-15T04:33:48;99333.56;;;21.92
54306;BMP280;64314;45.188;5.712;2022-10-15T04:36:13;99327.66;;;21.97
54306;BMP280;64314;45.188;5.712;2022-10-15T04:38:39;99319.66;;;21.92
54306;BMP280;64314;45.188;5.712;2022-10-15T04:41:07;99326.91;;;21.97
54306;BMP280;64314;45.188;5.712;2022-10-15T04:43:33;99323.91;;;21.93
54306;BMP280;64314;45.188;5.712;2022-10-15T04:46:00;99331.91;;;21.98
54306;BMP280;64314;45.188;5.712;2022-10-15T04:48:31;99332.63;;;21.99
54306;BMP280;64314;45.188;5.712;2022-10-15T04:51:07;99325.63;;;21.98
54306;BMP280;64314;45.188;5.712;2022-10-15T04:53:33;99323.56;;;21.98
54306;BMP280;64314;45.188;5.712;2022-10-15T04:56:10;99338.19;;;21.99
54306;BMP280;64314;45.188;5.712;2022-10-15T04:58:40;99333.22;;;21.97
54306;BMP280;64314;45.188;5.712;2022-10-15T05:01:09;99329.00;;;21.96
54306;BMP280;64314;45.188;5.712;2022-10-15T05:03:37;99316.41;;;21.95
54306;BMP280;64314;45.188;5.712;2022-10-15T05:06:05;99330.56;;;21.99
54306;BMP280;64314;45.188;5.712;2022-10-15T05:08:31;99327.53;;;21.95
54306;BMP280;64314;45.188;5.712;2022-10-15T05:11:05;99327.09;;;21.99
54306;BMP280;64314;45.188;5.712;2022-10-15T05:13:31;99314.72;;;21.90
54306;BMP280;64314;45.188;5.712;2022-10-15T05:18:35;99335.84;;;21.95
54306;BMP280;64314;45.188;5.712;2022-10-15T05:21:01;99327.41;;;21.93
54306;BMP280;64314;45.188;5.712;2022-10-15T05:23:27;99334.41;;;21.94
54306;BMP280;64314;45.188;5.712;2022-10-15T05:25:52;99338.63;;;21.95
54306;BMP280;64314;45.188;5.712;2022-10-15T05:28:18;99343.00;;;21.98
54306;BMP280;64314;45.188;5.712;2022-10-15T05:30:43;99328.00;;;21.92
54306;BMP280;64314;45.188;5.712;2022-10-15T05:33:11;99340.09;;;21.96
54306;BMP280;64314;45.188;5.712;2022-10-15T05:35:37;99345.78;;;21.98
54306;BMP280;64314;45.188;5.712;2022-10-15T05:38:03;99339.97;;;21.94
54306;BMP280;64314;45.188;5.712;2022-10-15T05:40:28;99339.97;;;21.94
54306;BMP280;64314;45.188;5.712;2022-10-15T05:42:54;99345.78;;;21.98
54306;BMP280;64314;45.188;5.712;2022-10-15T05:45:19;99342.75;;;21.94
54306;BMP280;64314;45.188;5.712;2022-10-15T05:47:45;99341.41;;;21.95
54306;BMP280;64314;45.188;5.712;2022-10-15T05:50:10;99344.56;;;21.90
54306;BMP280;64314;45.188;5.712;2022-10-15T05:52:35;99345.53;;;21.94
54306;BMP280;64314;45.188;5.712;2022-10-15T05:55:01;99361.09;;;21.99
54306;BMP280;64314;45.188;5.712;2022-10-15T05:57:26;99356.03;;;21.96
54306;BMP280;64314;45.188;5.712;2022-10-15T05:59:52;99363.88;;;21.99
54306;BMP280;64314;45.188;5.712;2022-10-15T06:02:17;99351.81;;;21.95
54306;BMP280;64314;45.188;5.712;2022-10-15T06:04:42;99343.34;;;21.93
54306;BMP280;64314;45.188;5.712;2022-10-15T06:07:08;99348.03;;;21.90
54306;BMP280;64314;45.188;5.712;2022-10-15T06:09:33;99351.81;;;21.95
54306;BMP280;64314;45.188;5.712;2022-10-15T06:11:59;99350.22;;;21.92
54306;BMP280;64314;45.188;5.712;2022-10-15T06:14:24;99363.19;;;21.99
54306;BMP280;64314;45.188;5.712;2022-10-15T06:16:51;99352.97;;;21.92
54306;BMP280;64314;45.188;5.712;2022-10-15T06:19:19;99361.09;;;21.99
54306;BMP280;64314;45.188;5.712;2022-10-15T06:21:44;99342.63;;;21.92
54306;BMP280;64314;45.188;5.712;2022-10-15T06:24:09;99352.25;;;21.91
54306;BMP280;64314;45.188;5.712;2022-10-15T06:26:35;99363.19;;;21.99
54306;BMP280;64314;45.188;5.712;2022-10-15T06:29:00;99368.00;;;21.98
54306;BMP280;64314;45.188;5.712;2022-10-15T06:31:26;99357.97;;;21.93
54306;BMP280;64314;45.188;5.712;2022-10-15T06:33:51;99356.63;;;21.94
54306;BMP280;64314;45.188;5.712;2022-10-15T06:36:16;99370.19;;;22.00
54306;BMP280;64314;45.188;5.712;2022-10-15T06:38:44;99371.50;;;21.99
54306;BMP280;64314;45.188;5.712;2022-10-15T06:41:11;99361.59;;;21.96
54306;BMP280;64314;45.188;5.712;2022-10-15T06:43:36;99372.94;;;22.00
54306;BMP280;64314;45.188;5.712;2022-10-15T06:46:03;99370.88;;;22.00
54306;BMP280;64314;45.188;5.712;2022-10-15T06:48:29;99369.44;;;21.99
54306;BMP280;64314;45.188;5.712;2022-10-15T06:50:57;99384.75;;;22.00
54306;BMP280;64314;45.188;5.712;2022-10-15T06:53:23;99375.59;;;21.98
54306;BMP280;64314;45.188;5.712;2022-10-15T06:55:48;99379.69;;;21.97
54306;BMP280;64314;45.188;5.712;2022-10-15T06:58:14;99379.09;;;21.98
54306;BMP280;64314;45.188;5.712;2022-10-15T07:00:39;99389.00;;;22.01
54306;BMP280;64314;45.188;5.712;2022-10-15T07:03:05;99386.22;;;22.01
54306;BMP280;64314;45.188;5.712;2022-10-15T07:05:32;99388.28;;;22.01
54306;BMP280;64314;45.188;5.712;2022-10-15T07:07:58;99391.06;;;22.01
54306;BMP280;64314;45.188;5.712;2022-10-15T07:10:26;99398.06;;;22.02
54306;BMP280;64314;45.188;5.712;2022-10-15T07:12:52;99384.66;;;21.98
54306;BMP280;64314;45.188;5.712;2022-10-15T07:15:19;99383.31;;;21.99
54306;BMP280;64314;45.188;5.712;2022-10-15T07:17:53;99378.50;;;22.00
54306;BMP280;64314;45.188;5.712;2022-10-15T07:20:25;99380.53;;;21.99
54306;BMP280;64314;45.188;5.712;2022-10-15T07:22:56;99383.59;;;22.03
54306;BMP280;64314;45.188;5.712;2022-10-15T07:25:22;99372.56;;;21.94
54306;BMP280;64314;45.188;5.712;2022-10-15T07:27:47;99386.84;;;22.00
54306;BMP280;64314;45.188;5.712;2022-10-15T07:30:13;99389.84;;;22.04
54306;BMP280;64314;45.188;5.712;2022-10-15T07:32:38;99396.03;;;22.02
54306;BMP280;64314;45.188;5.712;2022-10-15T07:35:04;99389.00;;;22.01
54306;BMP280;64314;45.188;5.712;2022-10-15T07:37:29;99391.66;;;21.99
54306;BMP280;64314;45.188;5.712;2022-10-15T07:39:55;99400.25;;;22.03
54306;BMP280;64314;45.188;5.712;2022-10-15T07:42:21;99398.66;;;22.00
54306;BMP280;64314;45.188;5.712;2022-10-15T07:44:46;99401.31;;;21.98
54306;BMP280;64314;45.188;5.712;2022-10-15T07:47:11;99403.03;;;22.03
54306;BMP280;64314;45.188;5.712;2022-10-15T07:49:37;99388.75;;;21.97
54306;BMP280;64314;45.188;5.712;2022-10-15T07:52:02;99396.03;;;22.02
54306;BMP280;64314;45.188;5.712;2022-10-15T07:54:28;99397.22;;;21.99
54306;BMP280;64314;45.188;5.712;2022-10-15T07:56:53;99396.88;;;22.05
54306;BMP280;64314;45.188;5.712;2022-10-15T07:59:19;99387.44;;;21.98
54306;BMP280;64314;45.188;5.712;2022-10-15T08:01:44;99400.13;;;22.01
54306;BMP280;64314;45.188;5.712;2022-10-15T08:04:10;99409.28;;;22.04
54306;BMP280;64314;45.188;5.712;2022-10-15T08:06:35;99393.47;;;21.95
54306;BMP280;64314;45.188;5.712;2022-10-15T08:09:03;99408.44;;;22.01
54306;BMP280;64314;45.188;5.712;2022-10-15T08:11:29;99406.13;;;21.98
54306;BMP280;64314;45.188;5.712;2022-10-15T08:13:54;99402.91;;;22.01
54306;BMP280;64314;45.188;5.712;2022-10-15T08:16:19;99396.59;;;22.01
54306;BMP280;64314;45.188;5.712;2022-10-15T08:18:45;99390.22;;;21.98
54306;BMP280;64314;45.188;5.712;2022-10-15T08:21:11;99377.50;;;21.95
54306;BMP280;64314;45.188;5.712;2022-10-15T08:23:36;99367.00;;;21.94
54306;BMP280;64314;45.188;5.712;2022-10-15T08:26:03;99388.41;;;22.03
54306;BMP280;64314;45.188;5.712;2022-10-15T08:28:30;99367.97;;;21.87
54306;BMP280;64314;45.188;5.712;2022-10-15T08:31:00;99367.72;;;21.94
54306;BMP280;64314;45.188;5.712;2022-10-15T08:33:27;99373.28;;;21.94
54306;BMP280;64314;45.188;5.712;2022-10-15T08:35:53;99360.84;;;21.95
54306;BMP280;64314;45.188;5.712;2022-10-15T08:38:18;99360.84;;;21.95
54306;BMP280;64314;45.188;5.712;2022-10-15T08:41:10;99360.25;;;21.97
54306;BMP280;64314;45.188;5.712;2022-10-15T08:43:42;99359.41;;;21.94
54306;BMP280;64314;45.188;5.712;2022-10-15T08:48:55;99367.78;;;22.06
54306;BMP280;64314;45.188;5.712;2022-10-15T08:51:37;99375.38;;;22.05
54306;BMP280;64314;45.188;5.712;2022-10-15T08:54:14;99362.53;;;22.00
54306;BMP280;64314;45.188;5.712;2022-10-15T08:56:47;99369.44;;;21.99
54306;BMP280;64314;45.188;5.712;2022-10-15T08:59:39;99368.25;;;22.02
54306;BMP280;64314;45.188;5.712;2022-10-15T09:02:18;99365.31;;;22.00
54306;BMP280;64314;45.188;5.712;2022-10-15T09:05:26;99366.66;;;21.99
54306;BMP280;64314;45.188;5.712;2022-10-15T09:13:30;99359.53;;;21.96
54306;BMP280;64314;45.188;5.712;2022-10-15T09:16:33;99361.59;;;21.96
54306;BMP280;64314;45.188;5.712;2022-10-15T09:19:15;99360.84;;;21.95
54306;BMP280;64314;45.188;5.712;2022-10-15T09:21:44;99362.19;;;21.94
54306;BMP280;64314;45.188;5.712;2022-10-15T09:24:18;99356.38;;;21.90
54306;BMP280;64314;45.188;5.712;2022-10-15T09:27:22;99369.19;;;21.95
54306;BMP280;64314;45.188;5.712;2022-10-15T09:32:45;99357.22;;;21.93
54306;BMP280;64314;45.188;5.712;2022-10-15T09:35:19;99336.31;;;21.92
54306;BMP280;64314;45.188;5.712;2022-10-15T09:43:54;99347.91;;;21.88
54306;BMP280;64314;45.188;5.712;2022-10-15T09:46:24;99338.84;;;21.88
54306;BMP280;64314;45.188;5.712;2022-10-15T09:51:36;99335.56;;;21.80
54306;BMP280;64314;45.188;5.712;2022-10-15T09:54:26;99342.97;;;21.87
54306;BMP280;64314;45.188;5.712;2022-10-15T09:56:55;99326.78;;;21.83
54306;BMP280;64314;45.188;5.712;2022-10-15T09:59:22;99324.59;;;21.82
54306;BMP280;64314;45.188;5.712;2022-10-15T10:04:40;99320.25;;;21.79
54306;BMP280;64314;45.188;5.712;2022-10-15T10:07:22;99318.91;;;21.80
54306;BMP280;64314;45.188;5.712;2022-10-15T10:09:55;99320.34;;;21.81
54306;BMP280;64314;45.188;5.712;2022-10-15T10:12:27;99318.19;;;21.79
54306;BMP280;64314;45.188;5.712;2022-10-15T10:15:40;99309.00;;;21.77
54306;BMP280;64314;45.188;5.712;2022-10-15T10:18:26;99309.25;;;21.81
54306;BMP280;64314;45.188;5.712;2022-10-15T10:20:58;99296.16;;;21.72
54306;BMP280;64314;45.188;5.712;2022-10-15T10:23:44;99311.28;;;21.80
54306;BMP280;64314;45.188;5.712;2022-10-15T10:26:17;99305.03;;;21.80
54306;BMP280;64314;45.188;5.712;2022-10-15T10:29:32;99300.19;;;21.80
54306;BMP280;64314;45.188;5.712;2022-10-15T10:32:18;99305.03;;;21.80
54306;BMP280;64314;45.188;5.712;2022-10-15T10:34:46;99298.03;;;21.79
54306;BMP280;64314;45.188;5.712;2022-10-15T10:37:12;99294.38;;;21.76
54306;BMP280;64314;45.188;5.712;2022-10-15T10:39:37;99287.13;;;21.71
54306;BMP280;64314;45.188;5.712;2022-10-15T10:42:32;99293.06;;;21.77
54306;BMP280;64314;45.188;5.712;2022-10-15T10:45:23;99291.75;;;21.78
54306;BMP280;64314;45.188;5.712;2022-10-15T10:47:52;99276.16;;;21.73
54306;BMP280;64314;45.188;5.712;2022-10-15T10:50:32;99286.06;;;21.76
54306;BMP280;64314;45.188;5.712;2022-10-15T10:53:23;99269.16;;;21.72
54306;BMP280;64314;45.188;5.712;2022-10-15T10:55:50;99264.81;;;21.69
54306;BMP280;64314;45.188;5.712;2022-10-15T10:58:21;99272.19;;;21.76
54306;BMP280;64314;45.188;5.712;2022-10-15T11:00:50;99280.50;;;21.76
54306;BMP280;64314;45.188;5.712;2022-10-15T11:06:20;99277.75;;;21.76
54306;BMP280;64314;45.188;5.712;2022-10-15T11:14:11;99254.09;;;21.75
54306;BMP280;64314;45.188;5.712;2022-10-15T11:19:37;99245.03;;;21.75
54306;BMP280;64314;45.188;5.712;2022-10-15T11:25:19;99247.06;;;21.74
54306;BMP280;64314;45.188;5.712;2022-10-15T11:34:33;99233.19;;;21.74
54306;BMP280;64314;45.188;5.712;2022-10-15T11:37:44;99235.09;;;21.72
54306;BMP280;64314;45.188;5.712;2022-10-15T11:40:24;99231.63;;;21.71
54306;BMP280;64314;45.188;5.712;2022-10-15T11:45:54;99228.13;;;21.71
54306;BMP280;64314;45.188;5.712;2022-10-15T11:54:11;99213.50;;;21.70
54306;BMP280;64314;45.188;5.712;2022-10-15T11:56:46;99197.94;;;21.65
54306;BMP280;64314;45.188;5.712;2022-10-15T12:01:54;99203.75;;;21.69
54306;BMP280;64314;45.188;5.712;2022-10-15T12:04:35;99201.69;;;21.70
54306;BMP280;64314;45.188;5.712;2022-10-15T12:07:05;99177.94;;;21.67
54306;BMP280;64314;45.188;5.712;2022-10-15T12:09:36;99173.69;;;21.66
54306;BMP280;64314;45.188;5.712;2022-10-15T12:15:19;99161.75;;;21.63
54306;BMP280;64314;45.188;5.712;2022-10-15T12:18:00;99162.69;;;21.68
54306;BMP280;64314;45.188;5.712;2022-10-15T12:20:28;99166.19;;;21.68
54306;BMP280;64314;45.188;5.712;2022-10-15T12:22:57;99162.13;;;21.69
54306;BMP280;64314;45.188;5.712;2022-10-15T12:30:36;99155.09;;;21.68
54306;BMP280;64314;45.188;5.712;2022-10-15T12:33:20;99146.66;;;21.66
54306;BMP280;64314;45.188;5.712;2022-10-15T12:35:53;99141.22;;;21.68
54306;BMP280;64314;45.188;5.712;2022-10-15T12:38:38;99144.00;;;21.68
54306;BMP280;64314;45.188;5.712;2022-10-15T12:41:10;99137.00;;;21.67
54306;BMP280;64314;45.188;5.712;2022-10-15T12:43:51;99134.22;;;21.67
54306;BMP280;64314;45.188;5.712;2022-10-15T12:46:18;99119.41;;;21.63
54306;BMP280;64314;45.188;5.712;2022-10-15T12:48:44;99132.78;;;21.66
54306;BMP280;64314;45.188;5.712;2022-10-15T12:53:49;99117.59;;;21.67
54306;BMP280;64314;45.188;5.712;2022-10-15T12:58:48;99123.13;;;21.67
54306;BMP280;64314;45.188;5.712;2022-10-15T13:03:53;99116.16;;;21.66
54306;BMP280;64314;45.188;5.712;2022-10-15T13:06:29;99106.47;;;21.67
54306;BMP280;64314;45.188;5.712;2022-10-15T13:11:47;99099.50;;;21.66
54306;BMP280;64314;45.188;5.712;2022-10-15T13:14:34;99091.00;;;21.64
54306;BMP280;64314;45.188;5.712;2022-10-15T13:17:20;99092.38;;;21.63
54306;BMP280;64314;45.188;5.712;2022-10-15T13:19:58;99090.44;;;21.66
54306;BMP280;64314;45.188;5.712;2022-10-15T13:22:29;99081.97;;;21.64
54306;BMP280;64314;45.188;5.712;2022-10-15T13:24:55;99082.59;;;21.62
54306;BMP280;64314;45.188;5.712;2022-10-15T13:27:25;99091.00;;;21.64
54306;BMP280;64314;45.188;5.712;2022-10-15T13:32:24;99086.94;;;21.65
54306;BMP280;64314;45.188;5.712;2022-10-15T13:34:53;99085.47;;;21.64
54306;BMP280;64314;45.188;5.712;2022-10-15T13:37:36;99079.22;;;21.64
54306;BMP280;64314;45.188;5.712;2022-10-15T13:40:03;99082.09;;;21.66
54306;BMP280;64314;45.188;5.712;2022-10-15T13:42:29;99084.75;;;21.64
54306;BMP280;64314;45.188;5.712;2022-10-15T13:45:04;99079.91;;;21.64
54306;BMP280;64314;45.188;5.712;2022-10-15T13:47:47;99072.31;;;21.65
54306;BMP280;64314;45.188;5.712;2022-10-15T13:50:26;99073.06;;;21.65
54306;BMP280;64314;45.188;5.712;2022-10-15T13:55:29;99085.47;;;21.64
54306;BMP280;64314;45.188;5.712;2022-10-15T13:58:31;99080.06;;;21.66
54306;BMP280;64314;45.188;5.712;2022-10-15T14:06:25;99061.69;;;21.61
54306;BMP280;64314;45.188;5.712;2022-10-15T14:08:58;99059.19;;;21.65
54306;BMP280;64314;45.188;5.712;2022-10-15T14:11:24;99033.34;;;21.51
54306;BMP280;64314;45.188;5.712;2022-10-15T14:14:28;99064.84;;;21.67
54306;BMP280;64314;45.188;5.712;2022-10-15T14:16:56;99044.47;;;21.51
54306;BMP280;64314;45.188;5.712;2022-10-15T14:19:36;99052.16;;;21.64
54306;BMP280;64314;45.188;5.712;2022-10-15T14:23:02;99034.56;;;21.48
54306;BMP280;64314;45.188;5.712;2022-10-15T14:26:04;99037.69;;;21.54
54306;BMP280;64314;45.188;5.712;2022-10-15T14:32:22;99020.56;;;21.46
54306;BMP280;64314;45.188;5.712;2022-10-15T14:40:59;99014.66;;;21.52
54306;BMP280;64314;45.188;5.712;2022-10-15T14:43:37;99020.31;;;21.53
54306;BMP280;64314;45.188;5.712;2022-10-15T14:46:18;99027.81;;;21.63
54306;BMP280;64314;45.188;5.712;2022-10-15T14:54:47;99020.06;;;21.61
54306;BMP280;64314;45.188;5.712;2022-10-15T14:57:22;99030.34;;;21.70
54306;BMP280;64314;45.188;5.712;2022-10-15T14:59:56;99017.22;;;21.59
54306;BMP280;64314;45.188;5.712;2022-10-15T15:02:26;99016.97;;;21.55
54306;BMP280;64314;45.188;5.712;2022-10-15T15:05:27;99040.13;;;21.71
54306;BMP280;64314;45.188;5.712;2022-10-15T15:07:56;99022.03;;;21.59
54306;BMP280;64314;45.188;5.712;2022-10-15T15:10:28;99016.47;;;21.59
54306;BMP280;64314;45.188;5.712;2022-10-15T15:12:55;99018.88;;;21.64
54306;BMP280;64314;45.188;5.712;2022-10-15T15:15:23;99027.44;;;21.68
54306;BMP280;64314;45.188;5.712;2022-10-15T15:17:49;99021.41;;;21.72
54306;BMP280;64314;45.188;5.712;2022-10-15T15:20:17;99012.84;;;21.68
54306;BMP280;64314;45.188;5.712;2022-10-15T15:22:52;99007.75;;;21.64
54306;BMP280;64314;45.188;5.712;2022-10-15T15:25:19;99017.91;;;21.71
54306;BMP280;64314;45.188;5.712;2022-10-15T15:27:45;99012.13;;;21.67
54306;BMP280;64314;45.188;5.712;2022-10-15T15:30:19;99024.91;;;21.72
54306;BMP280;64314;45.188;5.712;2022-10-15T15:32:45;99013.31;;;21.64
54306;BMP280;64314;45.188;5.712;2022-10-15T15:37:49;99013.78;;;21.61
54306;BMP280;64314;45.188;5.712;2022-10-15T15:40:40;99029.03;;;21.71
54306;BMP280;64314;45.188;5.712;2022-10-15T15:43:13;99005.00;;;21.64
54306;BMP280;64314;45.188;5.712;2022-10-15T15:45:39;98998.97;;;21.56
54306;BMP280;64314;45.188;5.712;2022-10-15T15:48:05;99012.72;;;21.66
54306;BMP280;64314;45.188;5.712;2022-10-15T15:50:30;99009.72;;;21.62
54306;BMP280;64314;45.188;5.712;2022-10-15T15:52:56;98991.25;;;21.55
54306;BMP280;64314;45.188;5.712;2022-10-15T15:55:24;98992.72;;;21.56
54306;BMP280;64314;45.188;5.712;2022-10-15T15:57:49;99002.47;;;21.57
54306;BMP280;64314;45.188;5.712;2022-10-15T16:00:16;99024.78;;;21.70
54306;BMP280;64314;45.188;5.712;2022-10-15T16:02:42;99018.88;;;21.64
54306;BMP280;64314;45.188;5.712;2022-10-15T16:05:11;99009.22;;;21.53
54306;BMP280;64314;45.188;5.712;2022-10-15T16:07:37;99014.44;;;21.59
54306;BMP280;64314;45.188;5.712;2022-10-15T16:10:05;99005.63;;;21.51
54306;BMP280;64314;45.188;5.712;2022-10-15T16:12:52;99040.13;;;21.71
54306;BMP280;64314;45.188;5.712;2022-10-15T16:15:20;99044.09;;;21.68
54306;BMP280;64314;45.188;5.712;2022-10-15T16:17:45;99025.53;;;21.59
54306;BMP280;64314;45.188;5.712;2022-10-15T16:20:10;99044.94;;;21.71
54306;BMP280;64314;45.188;5.712;2022-10-15T16:22:37;99040.00;;;21.69
54306;BMP280;64314;45.188;5.712;2022-10-15T16:25:13;99034.81;;;21.64
54306;BMP280;64314;45.188;5.712;2022-10-15T16:27:41;99040.72;;;21.70
54306;BMP280;64314;45.188;5.712;2022-10-15T16:30:10;99042.91;;;21.71
54306;BMP280;64314;45.188;5.712;2022-10-15T16:32:35;99035.50;;;21.64